createdAt,value
2019-05-01T00:00:27.463Z,84.70
2019-05-01T00:03:00.357Z,84.40
2019-05-01T00:05:33.827Z,85.10
2019-05-01T00:08:03.472Z,85.10
2019-05-01T00:10:33.310Z,84.70
2019-05-01T00:13:03.482Z,85.10
2019-05-01T00:15:35.029Z,84.80
2019-05-01T00:18:04.874Z,86.10
2019-05-01T00:20:34.531Z,85.60
2019-05-01T00:23:06.711Z,85.70
2019-05-01T00:25:36.541Z,85.60
2019-05-01T00:28:07.899Z,85.70
2019-05-01T00:30:37.854Z,85.80
2019-05-01T00:33:07.642Z,85.90
2019-05-01T00:35:37.371Z,86.60
2019-05-01T00:38:07.130Z,85.90
2019-05-01T00:40:36.924Z,86.20
2019-05-01T00:43:06.645Z,86.50
2019-05-01T00:45:36.370Z,86.30
2019-05-01T00:48:06.073Z,85.90
2019-05-01T00:50:36.280Z,85.80
2019-05-01T00:53:06.030Z,86.60
2019-05-01T00:55:37.464Z,86.50
2019-05-01T00:58:13.717Z,87.00
2019-05-01T01:00:47.922Z,86.30
2019-05-01T01:03:17.591Z,87.00
2019-05-01T01:05:47.363Z,86.90
2019-05-01T01:08:17.491Z,86.70
2019-05-01T01:10:47.197Z,86.70
2019-05-01T01:13:16.846Z,86.40
2019-05-01T01:15:46.411Z,86.60
2019-05-01T01:18:16.053Z,87.20
2019-05-01T01:20:45.928Z,86.80
2019-05-01T01:23:15.924Z,86.80
2019-05-01T01:25:45.629Z,86.30
2019-05-01T01:28:15.239Z,86.10
2019-05-01T01:30:55.755Z,86.60
2019-05-01T01:33:16.391Z,87.20
2019-05-01T01:35:46.214Z,87.30
2019-05-01T01:38:15.896Z,86.20
2019-05-01T01:40:46.257Z,86.50
2019-05-01T01:43:34.631Z,86.90
2019-05-01T01:46:06.599Z,87.20
2019-05-01T01:48:36.644Z,87.20
2019-05-01T01:51:08.813Z,87.20
2019-05-01T01:53:38.597Z,88.00
2019-05-01T01:56:08.598Z,87.90
2019-05-01T01:58:38.889Z,87.40
2019-05-01T02:01:16.216Z,88.10
2019-05-01T02:03:50.119Z,88.10
2019-05-01T02:06:20.109Z,87.20
2019-05-01T02:08:56.209Z,87.20
2019-05-01T02:11:20.338Z,87.50
2019-05-01T02:13:51.755Z,87.80
2019-05-01T02:16:21.479Z,87.50
2019-05-01T02:18:53.784Z,87.80
2019-05-01T02:21:23.594Z,87.30
2019-05-01T02:23:54.804Z,87.20
2019-05-01T02:26:26.406Z,88.40
2019-05-01T02:29:02.156Z,87.30
2019-05-01T02:31:36.810Z,87.60
2019-05-01T02:34:07.193Z,87.60
2019-05-01T02:36:38.636Z,87.70
2019-05-01T02:39:08.766Z,88.00
2019-05-01T02:41:41.858Z,88.10
2019-05-01T02:44:20.638Z,88.20
2019-05-01T02:46:56.208Z,88.50
2019-05-01T02:49:37.788Z,89.80
2019-05-01T02:52:08.121Z,88.50
2019-05-01T02:54:39.645Z,88.10
2019-05-01T02:57:18.834Z,87.60
2019-05-01T02:59:51.849Z,87.50
2019-05-01T03:02:25.141Z,88.20
2019-05-01T03:04:55.719Z,88.50
2019-05-01T03:07:27.920Z,88.50
2019-05-01T03:09:57.898Z,88.00
2019-05-01T03:12:30.943Z,88.00
2019-05-01T03:15:03.731Z,88.70
2019-05-01T03:17:45.847Z,88.10
2019-05-01T03:20:26.724Z,87.90
2019-05-01T03:23:13.712Z,88.70
2019-05-01T03:25:43.980Z,88.60
2019-05-01T03:28:14.200Z,88.30
2019-05-01T03:30:44.197Z,89.00
2019-05-01T03:33:14.341Z,89.40
2019-05-01T03:35:44.466Z,89.10
2019-05-01T03:38:14.222Z,88.80
2019-05-01T03:40:45.868Z,89.00
2019-05-01T03:43:15.641Z,89.10
2019-05-01T03:45:45.561Z,88.50
2019-05-01T03:48:16.266Z,88.80
2019-05-01T03:50:47.189Z,89.20
2019-05-01T03:53:20.589Z,89.00
2019-05-01T03:55:50.585Z,88.30
2019-05-01T03:58:20.905Z,88.20
2019-05-01T04:00:58.311Z,88.50
2019-05-01T04:03:36.069Z,89.30
2019-05-01T04:06:06.002Z,88.10
2019-05-01T04:08:36.426Z,88.40
2019-05-01T04:11:06.353Z,88.60
2019-05-01T04:13:36.374Z,88.20
2019-05-01T04:16:07.281Z,88.50
2019-05-01T04:18:37.066Z,88.30
2019-05-01T04:21:08.682Z,88.20
2019-05-01T04:23:42.316Z,88.10
2019-05-01T04:26:12.302Z,88.40
2019-05-01T04:28:47.283Z,88.80
2019-05-01T04:31:25.014Z,88.70
2019-05-01T04:34:08.952Z,88.30
2019-05-01T04:36:40.541Z,89.00
2019-05-01T04:39:10.345Z,87.90
2019-05-01T04:41:40.433Z,88.50
2019-05-01T04:44:10.257Z,89.40
2019-05-01T04:46:40.172Z,89.70
2019-05-01T04:49:09.931Z,90.30
2019-05-01T04:51:40.190Z,90.70
2019-05-01T04:54:10.128Z,90.60
2019-05-01T04:56:40.223Z,90.50
2019-05-01T04:59:09.982Z,90.80
2019-05-01T05:01:56.809Z,90.70
2019-05-01T05:04:26.156Z,91.00
2019-05-01T05:06:56.039Z,90.70
2019-05-01T05:09:45.917Z,91.20
2019-05-01T05:12:23.945Z,91.30
2019-05-01T05:14:55.455Z,91.10
2019-05-01T05:17:27.039Z,91.20
2019-05-01T05:19:57.211Z,90.90
2019-05-01T05:22:28.153Z,90.60
2019-05-01T05:24:57.860Z,90.50
2019-05-01T05:27:29.024Z,90.00
2019-05-01T05:29:59.066Z,89.90
2019-05-01T05:32:30.263Z,89.40
2019-05-01T05:35:01.717Z,88.00
2019-05-01T05:37:34.492Z,87.60
2019-05-01T05:40:05.370Z,87.90
2019-05-01T05:42:35.400Z,87.30
2019-05-01T05:45:07.756Z,86.20
2019-05-01T05:47:38.055Z,86.50
2019-05-01T05:50:09.509Z,86.10
2019-05-01T05:52:40.193Z,86.40
2019-05-01T05:55:17.450Z,86.30
2019-05-01T05:57:57.354Z,85.20
2019-05-01T06:00:30.021Z,85.30
2019-05-01T06:03:04.292Z,86.20
2019-05-01T06:05:39.756Z,85.20
2019-05-01T06:08:13.701Z,84.70
2019-05-01T06:10:53.566Z,84.20
2019-05-01T06:13:23.192Z,83.90
2019-05-01T06:16:05.180Z,83.70
2019-05-01T06:18:42.413Z,83.30
2019-05-01T06:21:14.130Z,83.90
2019-05-01T06:24:06.136Z,83.70
2019-05-01T06:26:37.070Z,83.20
2019-05-01T06:29:03.806Z,83.20
2019-05-01T06:31:34.219Z,83.30
2019-05-01T06:34:04.188Z,84.50
2019-05-01T06:36:36.986Z,83.00
2019-05-01T06:39:11.980Z,81.70
2019-05-01T06:41:43.082Z,83.70
2019-05-01T06:44:15.377Z,80.10
2019-05-01T06:47:04.975Z,80.40
2019-05-01T06:49:40.678Z,80.50
2019-05-01T06:52:13.378Z,80.10
2019-05-01T06:54:43.190Z,80.20
2019-05-01T06:57:13.598Z,80.30
2019-05-01T06:59:43.782Z,79.70
2019-05-01T07:02:16.077Z,78.90
2019-05-01T07:04:51.032Z,78.60
2019-05-01T07:07:25.456Z,78.10
2019-05-01T07:09:56.513Z,78.10
2019-05-01T07:12:28.394Z,78.30
2019-05-01T07:15:00.198Z,77.40
2019-05-01T07:17:30.229Z,77.30
2019-05-01T07:20:04.863Z,76.70
2019-05-01T07:22:37.032Z,75.20
2019-05-01T07:25:08.749Z,74.90
2019-05-01T07:27:38.507Z,75.30
2019-05-01T07:30:10.541Z,75.80
2019-05-01T07:32:41.101Z,76.80
2019-05-01T07:35:12.026Z,74.70
2019-05-01T07:37:42.002Z,75.50
2019-05-01T07:40:12.228Z,74.70
2019-05-01T07:42:49.817Z,73.90
2019-05-01T07:45:34.146Z,74.00
2019-05-01T07:48:05.569Z,74.30
2019-05-01T07:50:36.886Z,75.00
2019-05-01T07:53:08.172Z,75.30
2019-05-01T07:55:38.067Z,73.40
2019-05-01T07:58:10.350Z,73.60
2019-05-01T08:00:48.543Z,72.70
2019-05-01T08:03:18.352Z,73.60
2019-05-01T08:05:48.163Z,73.10
2019-05-01T08:08:18.043Z,73.80
2019-05-01T08:10:48.007Z,72.70
2019-05-01T08:13:17.756Z,72.20
2019-05-01T08:15:47.485Z,72.10
2019-05-01T08:18:24.086Z,71.70
2019-05-01T08:21:13.344Z,71.60
2019-05-01T08:23:47.240Z,71.10
2019-05-01T08:26:15.721Z,71.60
2019-05-01T08:28:49.858Z,71.00
2019-05-01T08:31:37.598Z,71.00
2019-05-01T08:34:09.436Z,69.90
2019-05-01T08:36:42.641Z,69.80
2019-05-01T08:39:12.396Z,69.00
2019-05-01T08:41:42.033Z,68.80
2019-05-01T08:44:11.835Z,69.80
2019-05-01T08:46:54.732Z,69.30
2019-05-01T08:49:31.481Z,67.50
2019-05-01T08:52:04.813Z,67.40
2019-05-01T08:54:33.624Z,66.50
2019-05-01T08:57:04.626Z,67.80
2019-05-01T08:59:35.880Z,66.30
2019-05-01T09:02:09.970Z,67.00
2019-05-01T09:04:39.341Z,67.30
2019-05-01T09:07:09.453Z,66.00
2019-05-01T09:09:45.159Z,65.60
2019-05-01T09:12:11.895Z,66.50
2019-05-01T09:14:41.422Z,67.00
2019-05-01T09:17:11.303Z,66.00
2019-05-01T09:19:42.999Z,65.50
2019-05-01T09:22:13.442Z,64.90
2019-05-01T09:24:43.227Z,65.70
2019-05-01T09:27:28.938Z,64.60
2019-05-01T09:30:04.453Z,64.00
2019-05-01T09:32:34.178Z,65.10
2019-05-01T09:35:15.043Z,64.10
2019-05-01T09:37:36.696Z,62.30
2019-05-01T09:40:09.254Z,61.90
2019-05-01T09:42:41.431Z,61.70
2019-05-01T09:45:11.665Z,61.70
2019-05-01T09:47:41.530Z,62.10
2019-05-01T09:50:12.165Z,61.70
2019-05-01T09:52:59.819Z,61.00
2019-05-01T09:55:32.015Z,61.50
2019-05-01T09:58:02.857Z,62.60
2019-05-01T10:00:33.581Z,63.60
2019-05-01T10:03:03.379Z,62.00
2019-05-01T10:05:37.983Z,62.90
2019-05-01T10:08:05.703Z,61.80
2019-05-01T10:10:37.029Z,62.40
2019-05-01T10:13:07.370Z,62.20
2019-05-01T10:15:37.120Z,61.30
2019-05-01T10:18:06.833Z,61.50
2019-05-01T10:20:36.611Z,59.30
2019-05-01T10:23:07.896Z,59.00
2019-05-01T10:25:47.413Z,58.10
2019-05-01T10:28:17.853Z,57.80
2019-05-01T10:30:58.667Z,57.40
2019-05-01T10:33:42.304Z,57.30
2019-05-01T10:36:32.958Z,56.80
2019-05-01T10:39:02.946Z,57.20
2019-05-01T10:41:34.881Z,56.40
2019-05-01T10:44:04.827Z,56.40
2019-05-01T10:46:37.622Z,57.00
2019-05-01T10:49:07.426Z,55.90
2019-05-01T10:51:37.282Z,55.40
2019-05-01T10:54:08.821Z,56.80
2019-05-01T10:56:38.765Z,55.90
2019-05-01T10:59:08.607Z,55.50
2019-05-01T11:01:45.833Z,55.60
2019-05-01T11:04:16.537Z,56.80
2019-05-01T11:06:46.553Z,56.00
2019-05-01T11:09:16.402Z,56.30
2019-05-01T11:11:46.217Z,56.80
2019-05-01T11:14:15.985Z,55.70
2019-05-01T11:16:45.755Z,54.80
2019-05-01T11:19:15.486Z,55.50
2019-05-01T11:21:45.412Z,55.90
2019-05-01T11:24:15.163Z,54.10
2019-05-01T11:26:45.292Z,54.10
2019-05-01T11:29:15.168Z,54.70
2019-05-01T11:31:46.572Z,53.20
2019-05-01T11:34:18.061Z,54.20
2019-05-01T11:37:07.743Z,53.00
2019-05-01T11:39:42.561Z,53.20
2019-05-01T11:42:15.740Z,53.70
2019-05-01T11:44:45.543Z,53.30
2019-05-01T11:47:18.888Z,53.60
2019-05-01T11:49:48.798Z,53.70
2019-05-01T11:52:22.020Z,54.60
2019-05-01T11:55:01.215Z,54.20
2019-05-01T11:57:34.503Z,54.80
2019-05-01T12:00:10.201Z,55.10
2019-05-01T12:02:40.063Z,54.20
2019-05-01T12:05:11.538Z,53.40
2019-05-01T12:07:44.088Z,53.20
2019-05-01T12:10:16.329Z,53.90
2019-05-01T12:12:46.607Z,52.80
2019-05-01T12:15:17.153Z,52.40
2019-05-01T12:17:48.701Z,51.60
2019-05-01T12:20:22.061Z,52.70
2019-05-01T12:22:52.005Z,51.60
2019-05-01T12:25:21.858Z,51.70
2019-05-01T12:27:52.972Z,52.10
2019-05-01T12:30:21.922Z,53.20
2019-05-01T12:32:51.659Z,52.30
2019-05-01T12:35:21.614Z,51.30
2019-05-01T12:37:55.209Z,51.90
2019-05-01T12:40:24.474Z,51.70
2019-05-01T12:43:00.468Z,51.10
2019-05-01T12:45:30.310Z,51.60
2019-05-01T12:48:01.814Z,52.20
2019-05-01T12:50:35.365Z,51.20
2019-05-01T12:53:07.926Z,51.50
2019-05-01T12:55:48.085Z,51.80
2019-05-01T12:58:20.178Z,51.00
2019-05-01T13:00:52.761Z,51.50
2019-05-01T13:03:23.937Z,50.80
2019-05-01T13:05:59.062Z,50.90
2019-05-01T13:08:29.364Z,52.10
2019-05-01T13:11:00.170Z,51.30
2019-05-01T13:13:29.956Z,51.80
2019-05-01T13:15:59.746Z,50.70
2019-05-01T13:18:29.485Z,49.90
2019-05-01T13:20:59.276Z,50.40
2019-05-01T13:23:29.122Z,49.20
2019-05-01T13:26:00.653Z,50.10
2019-05-01T13:28:35.002Z,48.10
2019-05-01T13:31:19.164Z,48.90
2019-05-01T13:33:50.026Z,49.40
2019-05-01T13:36:19.830Z,49.00
2019-05-01T13:38:49.588Z,48.10
2019-05-01T13:41:20.977Z,47.20
2019-05-01T13:43:52.495Z,47.80
2019-05-01T13:46:22.329Z,47.80
2019-05-01T13:48:53.091Z,47.10
2019-05-01T13:51:22.933Z,44.90
2019-05-01T13:53:52.901Z,44.70
2019-05-01T13:56:22.982Z,44.80
2019-05-01T13:58:52.743Z,43.90
2019-05-01T14:01:24.145Z,43.20
2019-05-01T14:03:54.030Z,43.70
2019-05-01T14:06:23.903Z,44.20
2019-05-01T14:08:53.582Z,44.30
2019-05-01T14:11:23.208Z,44.00
2019-05-01T14:13:53.064Z,42.80
2019-05-01T14:16:22.799Z,40.80
2019-05-01T14:18:53.240Z,39.70
2019-05-01T14:21:30.734Z,38.40
2019-05-01T14:24:17.303Z,37.40
2019-05-01T14:26:47.485Z,37.30
2019-05-01T14:29:17.345Z,33.70
2019-05-01T14:32:06.448Z,34.40
2019-05-01T14:34:36.678Z,35.00
2019-05-01T14:37:06.519Z,36.10
2019-05-01T14:39:36.329Z,36.00
2019-05-01T14:42:07.714Z,35.50
2019-05-01T14:44:38.178Z,34.80
2019-05-01T14:47:09.325Z,33.60
2019-05-01T14:49:39.107Z,34.00
2019-05-01T14:52:09.209Z,35.70
2019-05-01T14:54:39.171Z,37.60
2019-05-01T14:57:09.135Z,38.70
2019-05-01T15:02:19.659Z,41.70
2019-05-01T15:04:49.591Z,42.40
2019-05-01T15:07:19.800Z,42.60
2019-05-01T15:09:49.594Z,44.20
2019-05-01T15:12:19.414Z,44.50
2019-05-01T15:14:53.524Z,44.10
2019-05-01T15:17:24.841Z,44.00
2019-05-01T15:19:56.179Z,44.40
2019-05-01T15:22:31.456Z,44.70
2019-05-01T15:25:01.273Z,45.20
2019-05-01T15:27:31.007Z,44.40
2019-05-01T15:30:01.853Z,44.60
2019-05-01T15:32:32.234Z,45.80
2019-05-01T15:35:01.882Z,44.80
2019-05-01T15:37:35.197Z,45.60
2019-05-01T15:40:07.650Z,45.40
2019-05-01T15:42:48.429Z,45.50
2019-05-01T15:45:18.245Z,45.70
2019-05-01T15:47:47.991Z,46.10
2019-05-01T15:50:17.939Z,45.20
2019-05-01T15:52:47.721Z,46.80
2019-05-01T15:55:17.428Z,45.90
2019-05-01T15:57:47.226Z,45.70
2019-05-01T16:00:20.517Z,46.10
2019-05-01T16:02:51.621Z,45.70
2019-05-01T16:05:22.686Z,45.00
2019-05-01T16:07:53.904Z,44.80
2019-05-01T16:10:28.282Z,45.50
2019-05-01T16:13:04.315Z,46.10
2019-05-01T16:15:39.912Z,45.10
2019-05-01T16:18:09.719Z,45.90
2019-05-01T16:20:39.410Z,47.40
2019-05-01T16:23:11.332Z,47.20
2019-05-01T16:25:41.284Z,47.80
2019-05-01T16:28:11.198Z,48.40
2019-05-01T16:30:41.104Z,48.20
2019-05-01T16:33:11.000Z,48.70
2019-05-01T16:35:40.813Z,48.60
2019-05-01T16:38:22.387Z,47.90
2019-05-01T16:40:45.166Z,47.90
2019-05-01T16:43:14.900Z,49.70
2019-05-01T16:45:44.720Z,49.30
2019-05-01T16:48:14.439Z,49.10
2019-05-01T16:50:44.182Z,48.70
2019-05-01T16:53:13.856Z,49.80
2019-05-01T16:55:44.152Z,48.50
2019-05-01T16:58:15.154Z,49.50
2019-05-01T17:01:03.973Z,49.80
2019-05-01T17:03:51.615Z,49.50
2019-05-01T17:06:35.222Z,50.30
2019-05-01T17:09:15.614Z,50.10
2019-05-01T17:11:45.903Z,49.60
2019-05-01T17:14:17.161Z,50.20
2019-05-01T17:16:46.338Z,49.80
2019-05-01T17:19:15.915Z,49.40
2019-05-01T17:21:45.781Z,49.90
2019-05-01T17:24:21.019Z,49.60
2019-05-01T17:26:50.769Z,48.50
2019-05-01T17:29:20.976Z,49.00
2019-05-01T17:31:50.690Z,48.80
2019-05-01T17:34:20.401Z,49.60
2019-05-01T17:36:50.192Z,49.30
2019-05-01T17:39:21.238Z,49.40
2019-05-01T17:41:50.998Z,49.40
2019-05-01T17:44:25.113Z,48.80
2019-05-01T17:46:52.969Z,48.50
2019-05-01T17:49:25.891Z,49.00
2019-05-01T17:51:56.984Z,49.20
2019-05-01T17:54:26.792Z,49.50
2019-05-01T17:56:56.510Z,50.60
2019-05-01T17:59:31.748Z,50.90
2019-05-01T18:02:10.045Z,50.20
2019-05-01T18:04:56.474Z,50.60
2019-05-01T18:07:33.056Z,52.10
2019-05-01T18:10:01.523Z,53.10
2019-05-01T18:12:31.374Z,53.90
2019-05-01T18:15:01.093Z,54.40
2019-05-01T18:17:34.385Z,55.40
2019-05-01T18:20:05.413Z,55.50
2019-05-01T18:22:48.902Z,55.60
2019-05-01T18:25:20.400Z,55.90
2019-05-01T18:28:08.434Z,57.70
2019-05-01T18:30:42.522Z,56.70
2019-05-01T18:33:12.464Z,56.20
2019-05-01T18:35:44.954Z,56.90
2019-05-01T18:38:21.401Z,56.90
2019-05-01T18:40:55.597Z,56.10
2019-05-01T18:43:27.060Z,57.90
2019-05-01T18:45:57.644Z,56.90
2019-05-01T18:48:27.484Z,57.60
2019-05-01T18:50:58.180Z,56.70
2019-05-01T18:53:27.975Z,56.40
2019-05-01T18:56:01.371Z,56.50
2019-05-01T18:58:28.498Z,56.20
2019-05-01T19:00:58.275Z,56.40
2019-05-01T19:03:29.940Z,56.70
2019-05-01T19:05:59.321Z,57.20
2019-05-01T19:08:28.968Z,57.60
2019-05-01T19:11:11.707Z,58.40
2019-05-01T19:13:31.883Z,58.80
2019-05-01T19:16:03.300Z,59.30
2019-05-01T19:18:33.152Z,59.60
2019-05-01T19:21:03.087Z,59.70
2019-05-01T19:23:33.395Z,59.80
2019-05-01T19:26:06.627Z,60.80
2019-05-01T19:28:35.321Z,60.60
2019-05-01T19:31:06.319Z,61.10
2019-05-01T19:33:36.083Z,60.60
2019-05-01T19:36:08.690Z,60.30
2019-05-01T19:38:38.993Z,61.10
2019-05-01T19:41:13.641Z,60.30
2019-05-01T19:43:41.972Z,60.10
2019-05-01T19:46:13.839Z,59.40
2019-05-01T19:48:45.560Z,59.60
2019-05-01T19:51:19.033Z,59.50
2019-05-01T19:53:51.068Z,59.30
2019-05-01T19:56:21.406Z,59.80
2019-05-01T19:58:48.522Z,59.20
2019-05-01T20:01:18.420Z,58.80
2019-05-01T20:03:48.313Z,58.70
2019-05-01T20:06:18.322Z,58.80
2019-05-01T20:08:49.503Z,59.60
2019-05-01T20:11:26.205Z,59.30
2019-05-01T20:13:55.843Z,58.70
2019-05-01T20:16:25.534Z,59.20
2019-05-01T20:18:55.397Z,59.30
2019-05-01T20:21:25.048Z,59.40
2019-05-01T20:23:54.855Z,59.40
2019-05-01T20:26:26.851Z,61.10
2019-05-01T20:28:57.496Z,60.60
2019-05-01T20:31:28.227Z,60.90
2019-05-01T20:33:57.727Z,60.30
2019-05-01T20:36:27.394Z,60.30
2019-05-01T20:38:57.066Z,59.90
2019-05-01T20:41:26.865Z,61.00
2019-05-01T20:43:56.656Z,60.00
2019-05-01T20:46:29.262Z,61.30
2019-05-01T20:49:01.368Z,61.80
2019-05-01T20:51:31.386Z,62.00
2019-05-01T20:54:01.142Z,62.30
2019-05-01T20:56:35.459Z,62.70
2019-05-01T20:59:05.132Z,62.40
2019-05-01T21:01:35.983Z,62.70
2019-05-01T21:04:07.335Z,63.10
2019-05-01T21:06:45.679Z,62.00
2019-05-01T21:09:20.006Z,62.80
2019-05-01T21:12:04.985Z,63.20
2019-05-01T21:14:28.669Z,62.80
2019-05-01T21:16:58.477Z,62.50
2019-05-01T21:19:30.523Z,63.10
2019-05-01T21:21:59.884Z,62.00
2019-05-01T21:24:29.827Z,62.30
2019-05-01T21:27:05.142Z,62.90
2019-05-01T21:29:34.953Z,64.60
2019-05-01T21:32:04.758Z,63.90
2019-05-01T21:34:39.639Z,63.80
2019-05-01T21:37:09.712Z,64.30
2019-05-01T21:39:39.479Z,64.60
2019-05-01T21:42:11.711Z,65.00
2019-05-01T21:44:41.159Z,64.60
2019-05-01T21:47:10.889Z,65.10
2019-05-01T21:49:42.952Z,65.40
2019-05-01T21:52:13.493Z,66.10
2019-05-01T21:54:50.145Z,65.60
2019-05-01T21:57:19.215Z,65.40
2019-05-01T21:59:49.632Z,65.30
2019-05-01T22:02:22.541Z,66.10
2019-05-01T22:04:52.580Z,65.90
2019-05-01T22:07:23.888Z,66.20
2019-05-01T22:09:54.480Z,67.00
2019-05-01T22:12:25.883Z,66.80
2019-05-01T22:15:10.839Z,67.10
2019-05-01T22:17:51.039Z,67.50
2019-05-01T22:20:27.981Z,68.30
2019-05-01T22:22:59.659Z,68.10
2019-05-01T22:25:31.021Z,68.40
2019-05-01T22:28:02.347Z,68.70
2019-05-01T22:30:42.410Z,69.30
2019-05-01T22:33:11.786Z,69.60
2019-05-01T22:35:46.552Z,69.20
2019-05-01T22:38:16.987Z,69.00
2019-05-01T22:41:05.370Z,69.90
2019-05-01T22:43:26.343Z,69.80
2019-05-01T22:46:01.358Z,70.30
2019-05-01T22:48:28.102Z,70.20
2019-05-01T22:50:59.549Z,70.30
2019-05-01T22:53:29.684Z,70.40
2019-05-01T22:56:02.228Z,69.70
2019-05-01T22:58:32.207Z,69.70
2019-05-01T23:01:02.126Z,69.70
2019-05-01T23:03:40.551Z,70.40
2019-05-01T23:06:06.262Z,70.10
2019-05-01T23:08:36.590Z,70.60
2019-05-01T23:11:19.109Z,70.40
2019-05-01T23:13:38.178Z,70.40
2019-05-01T23:16:08.079Z,70.30
2019-05-01T23:18:39.139Z,70.40
2019-05-01T23:21:09.853Z,70.60
2019-05-01T23:23:39.248Z,70.60
2019-05-01T23:26:11.649Z,71.20
2019-05-01T23:28:40.988Z,70.50
2019-05-01T23:31:10.996Z,70.40
2019-05-01T23:33:40.789Z,70.10
2019-05-01T23:36:22.987Z,70.60
2019-05-01T23:38:41.854Z,70.30
2019-05-01T23:41:11.458Z,70.20
2019-05-01T23:43:41.234Z,70.50
2019-05-01T23:46:11.050Z,71.00
2019-05-01T23:48:40.818Z,71.10
2019-05-01T23:51:10.424Z,71.70
2019-05-01T23:53:44.348Z,71.20
2019-05-01T23:56:10.757Z,70.80
2019-05-01T23:58:40.312Z,71.50
